createdAt,value
2022-12-15T00:01:32.533Z,6.25
2022-12-15T00:04:36.427Z,6.80
2022-12-15T00:07:40.361Z,6.90
2022-12-15T00:10:44.202Z,6.22
2022-12-15T00:13:48.140Z,5.80
2022-12-15T00:16:52.039Z,6.18
2022-12-15T00:19:55.691Z,6.57
2022-12-15T00:23:00.610Z,6.18
2022-12-15T00:26:04.393Z,6.13
2022-12-15T00:29:08.159Z,6.45
2022-12-15T00:32:11.792Z,6.35
2022-12-15T00:35:15.706Z,6.43
2022-12-15T00:38:31.678Z,6.32
2022-12-15T00:41:18.337Z,6.20
2022-12-15T00:44:03.672Z,5.50
2022-12-15T00:46:54.650Z,6.13
2022-12-15T00:49:58.513Z,6.18
2022-12-15T00:53:02.361Z,6.07
2022-12-15T00:56:06.140Z,6.35
2022-12-15T00:59:11.135Z,6.85
2022-12-15T01:02:14.925Z,6.05
2022-12-15T01:05:18.735Z,6.72
2022-12-15T01:08:22.789Z,6.32
2022-12-15T01:11:26.841Z,5.95
2022-12-15T01:14:30.769Z,5.75
2022-12-15T01:17:35.226Z,6.55
2022-12-15T01:20:20.453Z,6.38
2022-12-15T01:23:05.813Z,5.90
2022-12-15T01:25:52.540Z,6.15
2022-12-15T01:28:37.527Z,6.18
2022-12-15T01:31:22.849Z,6.47
2022-12-15T01:34:07.702Z,6.68
2022-12-15T01:36:52.834Z,6.30
2022-12-15T01:39:56.751Z,6.65
2022-12-15T01:42:42.405Z,6.75
2022-12-15T01:45:27.640Z,7.45
2022-12-15T01:48:17.744Z,7.28
2022-12-15T01:51:14.973Z,6.35
2022-12-15T01:54:00.349Z,7.65
2022-12-15T01:56:58.921Z,6.57
2022-12-15T01:59:51.642Z,6.38
2022-12-15T02:02:40.440Z,6.63
2022-12-15T02:05:28.404Z,6.87
2022-12-15T02:08:13.896Z,6.90
2022-12-15T02:11:18.621Z,6.90
2022-12-15T02:14:09.172Z,6.40
2022-12-15T02:17:03.959Z,6.70
2022-12-15T02:20:13.802Z,6.88
2022-12-15T02:23:04.769Z,6.50
2022-12-15T02:26:14.700Z,6.70
2022-12-15T02:29:13.219Z,6.57
2022-12-15T02:32:30.923Z,6.20
2022-12-15T02:35:26.143Z,6.18
2022-12-15T02:38:12.167Z,6.25
2022-12-15T02:40:59.389Z,6.57
2022-12-15T02:43:44.678Z,6.55
2022-12-15T02:46:58.351Z,6.97
2022-12-15T02:49:58.733Z,6.85
2022-12-15T02:53:14.323Z,7.03
2022-12-15T02:56:19.141Z,6.93
2022-12-15T02:59:17.551Z,6.65
2022-12-15T03:02:06.717Z,6.75
2022-12-15T03:04:52.614Z,6.55
2022-12-15T03:07:37.412Z,6.35
2022-12-15T03:10:25.762Z,7.13
2022-12-15T03:13:10.565Z,7.15
2022-12-15T03:15:55.842Z,6.65
2022-12-15T03:18:41.111Z,6.38
2022-12-15T03:21:26.419Z,6.07
2022-12-15T03:24:11.698Z,6.70
2022-12-15T03:26:56.827Z,6.88
2022-12-15T03:29:41.970Z,6.82
2022-12-15T03:32:28.341Z,6.85
2022-12-15T03:35:13.780Z,6.28
2022-12-15T03:37:58.973Z,6.32
2022-12-15T03:40:44.477Z,6.10
2022-12-15T03:43:29.990Z,6.60
2022-12-15T03:46:15.428Z,6.18
2022-12-15T03:49:00.809Z,5.90
2022-12-15T03:51:46.244Z,6.30
2022-12-15T03:54:31.545Z,6.25
2022-12-15T03:57:16.421Z,5.68
2022-12-15T04:00:01.832Z,6.38
2022-12-15T04:02:50.067Z,6.63
2022-12-15T04:05:36.055Z,6.50
2022-12-15T04:08:26.700Z,6.25
2022-12-15T04:11:11.946Z,6.75
2022-12-15T04:13:57.086Z,6.22
2022-12-15T04:16:42.145Z,6.10
2022-12-15T04:19:45.822Z,5.80
2022-12-15T04:22:30.996Z,6.50
2022-12-15T04:25:37.589Z,6.88
2022-12-15T04:28:41.551Z,6.60
2022-12-15T04:31:48.311Z,5.85
2022-12-15T04:34:52.158Z,6.13
2022-12-15T04:37:56.193Z,6.47
2022-12-15T04:40:59.901Z,6.13
2022-12-15T04:44:03.567Z,6.20
2022-12-15T04:47:07.406Z,6.68
2022-12-15T04:50:11.174Z,6.22
2022-12-15T04:53:14.989Z,5.60
2022-12-15T04:56:18.998Z,6.68
2022-12-15T04:59:23.155Z,5.97
2022-12-15T05:02:27.134Z,6.40
2022-12-15T05:05:30.981Z,6.80
2022-12-15T05:08:34.883Z,6.40
2022-12-15T05:11:38.938Z,6.07
2022-12-15T05:14:42.986Z,6.18
2022-12-15T05:17:47.852Z,5.75
2022-12-15T05:20:51.928Z,5.90
2022-12-15T05:23:55.735Z,6.15
2022-12-15T05:26:59.580Z,6.03
2022-12-15T05:30:03.543Z,6.65
2022-12-15T05:32:49.928Z,6.03
2022-12-15T05:35:35.339Z,6.53
2022-12-15T05:38:20.445Z,6.07
2022-12-15T05:41:05.795Z,6.38
2022-12-15T05:43:50.874Z,6.57
2022-12-15T05:46:36.617Z,6.18
2022-12-15T05:49:24.411Z,6.35
2022-12-15T05:52:09.552Z,6.63
2022-12-15T05:54:54.801Z,6.90
2022-12-15T05:57:39.972Z,6.28
2022-12-15T06:00:25.100Z,6.50
2022-12-15T06:03:10.353Z,6.70
2022-12-15T06:05:56.701Z,6.65
2022-12-15T06:08:42.737Z,6.65
2022-12-15T06:11:27.759Z,5.80
2022-12-15T06:14:13.251Z,6.45
2022-12-15T06:16:59.996Z,7.07
2022-12-15T06:19:45.301Z,6.85
2022-12-15T06:22:30.568Z,6.97
2022-12-15T06:25:15.872Z,7.25
2022-12-15T06:28:01.968Z,6.78
2022-12-15T06:30:47.695Z,6.38
2022-12-15T06:33:33.786Z,6.93
2022-12-15T06:36:20.190Z,7.40
2022-12-15T06:39:08.284Z,6.30
2022-12-15T06:41:53.580Z,6.88
2022-12-15T06:44:38.746Z,6.30
2022-12-15T06:47:23.893Z,5.93
2022-12-15T06:50:09.699Z,6.55
2022-12-15T06:52:54.871Z,6.63
2022-12-15T06:55:41.553Z,6.82
2022-12-15T06:58:27.756Z,7.05
2022-12-15T07:01:13.048Z,7.55
2022-12-15T07:04:03.084Z,6.90
2022-12-15T07:06:49.194Z,6.47
2022-12-15T07:09:34.489Z,6.95
2022-12-15T07:12:19.504Z,6.85
2022-12-15T07:15:05.350Z,7.25
2022-12-15T07:17:51.058Z,7.20
2022-12-15T07:20:36.303Z,6.97
2022-12-15T07:23:39.684Z,7.32
2022-12-15T07:26:27.125Z,7.35
2022-12-15T07:29:12.321Z,6.70
2022-12-15T07:31:57.722Z,7.57
2022-12-15T07:34:43.036Z,6.82
2022-12-15T07:37:29.913Z,7.22
2022-12-15T07:40:15.050Z,7.20
2022-12-15T07:43:01.006Z,6.65
2022-12-15T07:45:51.883Z,7.68
2022-12-15T07:48:37.081Z,7.88
2022-12-15T07:51:22.787Z,8.05
2022-12-15T07:54:11.385Z,7.75
2022-12-15T07:56:56.456Z,7.28
2022-12-15T07:59:42.278Z,6.68
2022-12-15T08:02:27.477Z,6.68
2022-12-15T08:05:12.568Z,6.93
2022-12-15T08:07:58.605Z,7.82
2022-12-15T08:10:43.563Z,7.05
2022-12-15T08:14:00.906Z,7.00
2022-12-15T08:16:34.522Z,7.43
2022-12-15T08:19:19.875Z,6.25
2022-12-15T08:22:05.150Z,7.40
2022-12-15T08:24:50.146Z,7.65
2022-12-15T08:27:35.800Z,7.28
2022-12-15T08:30:21.690Z,6.85
2022-12-15T08:33:06.974Z,6.70
2022-12-15T08:35:58.332Z,7.13
2022-12-15T08:38:44.765Z,7.93
2022-12-15T08:41:32.006Z,7.45
2022-12-15T08:44:17.362Z,11.40
2022-12-15T08:47:02.792Z,8.57
2022-12-15T08:49:48.641Z,7.53
2022-12-15T08:52:34.839Z,8.18
2022-12-15T08:55:22.526Z,20.48
2022-12-15T08:58:07.637Z,8.30
2022-12-15T09:00:52.905Z,7.72
2022-12-15T09:03:38.981Z,7.10
2022-12-15T09:06:30.862Z,7.95
2022-12-15T09:09:16.021Z,6.95
2022-12-15T09:12:01.120Z,7.75
2022-12-15T09:14:46.440Z,6.60
2022-12-15T09:17:31.521Z,6.50
2022-12-15T09:20:18.073Z,7.30
2022-12-15T09:23:03.337Z,7.15
2022-12-15T09:25:48.317Z,6.85
2022-12-15T09:28:33.988Z,6.82
2022-12-15T09:31:25.378Z,6.78
2022-12-15T09:34:15.347Z,6.85
2022-12-15T09:37:00.301Z,7.10
2022-12-15T09:39:45.332Z,6.32
2022-12-15T09:42:31.879Z,6.72
2022-12-15T09:45:26.137Z,6.97
2022-12-15T09:48:18.711Z,6.68
2022-12-15T09:51:04.930Z,6.95
2022-12-15T09:53:55.116Z,5.90
2022-12-15T09:56:58.160Z,7.10
2022-12-15T10:00:01.762Z,6.97
2022-12-15T10:03:25.002Z,7.05
2022-12-15T10:06:32.899Z,7.00
2022-12-15T10:09:22.451Z,7.32
2022-12-15T10:12:25.299Z,6.10
2022-12-15T10:15:41.371Z,6.80
2022-12-15T10:18:39.929Z,6.88
2022-12-15T10:21:28.179Z,6.88
2022-12-15T10:27:36.416Z,6.65
2022-12-15T10:30:21.982Z,6.65
2022-12-15T10:33:22.771Z,6.80
2022-12-15T10:36:14.283Z,7.28
2022-12-15T10:38:59.285Z,6.32
2022-12-15T10:41:44.321Z,6.75
2022-12-15T10:44:38.982Z,6.70
2022-12-15T10:47:28.210Z,6.82
2022-12-15T10:50:25.603Z,5.97
2022-12-15T10:53:38.595Z,5.47
2022-12-15T10:56:33.584Z,6.07
2022-12-15T10:59:36.433Z,6.18
2022-12-15T11:02:24.246Z,6.78
2022-12-15T11:05:16.389Z,5.78
2022-12-15T11:08:16.654Z,5.95
2022-12-15T11:11:26.113Z,5.93
2022-12-15T11:14:18.047Z,5.88
2022-12-15T11:17:07.012Z,5.93
2022-12-15T11:20:03.551Z,5.40
2022-12-15T11:22:57.251Z,5.15
2022-12-15T11:25:53.639Z,5.32
2022-12-15T11:29:02.678Z,5.20
2022-12-15T11:31:48.990Z,5.55
2022-12-15T11:34:38.094Z,5.38
2022-12-15T11:37:34.018Z,5.70
2022-12-15T11:40:35.783Z,5.85
2022-12-15T11:43:26.864Z,5.60
2022-12-15T11:46:18.927Z,5.03
2022-12-15T11:49:20.401Z,5.15
2022-12-15T11:52:40.611Z,4.30
2022-12-15T11:55:44.619Z,4.90
2022-12-15T11:59:08.717Z,4.85
2022-12-15T12:02:28.156Z,5.15
2022-12-15T12:05:41.598Z,5.25
2022-12-15T12:08:54.225Z,4.38
2022-12-15T12:11:55.253Z,4.53
2022-12-15T12:15:02.162Z,4.30
2022-12-15T12:17:55.447Z,4.00
2022-12-15T12:20:50.673Z,4.18
2022-12-15T12:23:52.452Z,4.55
2022-12-15T12:26:51.859Z,7.13
2022-12-15T12:29:53.106Z,5.18
2022-12-15T12:32:50.715Z,4.38
2022-12-15T12:35:45.589Z,4.57
2022-12-15T12:38:37.247Z,4.15
2022-12-15T12:41:31.567Z,4.20
2022-12-15T12:44:30.976Z,4.35
2022-12-15T12:47:36.026Z,3.88
2022-12-15T12:50:25.856Z,4.15
2022-12-15T12:53:27.267Z,5.00
2022-12-15T12:56:33.416Z,3.70
2022-12-15T12:59:30.623Z,3.67
2022-12-15T13:02:15.556Z,3.95
2022-12-15T13:05:21.352Z,4.28
2022-12-15T13:08:06.349Z,3.75
2022-12-15T13:10:54.227Z,4.05
2022-12-15T13:13:51.024Z,4.15
2022-12-15T13:19:57.153Z,3.90
2022-12-15T13:22:42.287Z,4.80
2022-12-15T13:25:35.689Z,4.13
2022-12-15T13:28:36.037Z,4.40
2022-12-15T13:31:28.968Z,4.30
2022-12-15T13:34:20.871Z,4.47
2022-12-15T13:37:26.202Z,15.55
2022-12-15T13:40:35.800Z,6.13
2022-12-15T13:43:26.795Z,7.47
2022-12-15T13:46:20.273Z,12.18
2022-12-15T13:49:16.025Z,7.20
2022-12-15T13:52:04.012Z,6.43
2022-12-15T13:55:01.778Z,5.68
2022-12-15T13:58:02.150Z,6.40
2022-12-15T14:00:55.939Z,6.07
2022-12-15T14:04:16.452Z,5.60
2022-12-15T14:07:03.128Z,5.53
2022-12-15T14:09:50.263Z,6.10
2022-12-15T14:12:39.558Z,5.13
2022-12-15T14:15:31.531Z,5.82
2022-12-15T14:18:32.077Z,5.53
2022-12-15T14:21:26.981Z,6.68
2022-12-15T14:24:42.504Z,5.32
2022-12-15T14:27:30.922Z,5.90
2022-12-15T14:30:22.322Z,4.95
2022-12-15T14:33:15.058Z,4.95
2022-12-15T14:36:01.069Z,4.95
2022-12-15T14:39:00.090Z,5.63
2022-12-15T14:41:50.629Z,5.80
2022-12-15T14:44:39.712Z,5.70
2022-12-15T14:47:33.803Z,5.20
2022-12-15T14:53:28.321Z,5.93
2022-12-15T14:56:13.690Z,5.60
2022-12-15T14:59:04.426Z,7.05
2022-12-15T15:01:58.794Z,6.78
2022-12-15T15:03:05.362Z,4.40
2022-12-15T15:03:06.093Z,5.68
2022-12-15T15:04:56.692Z,5.93
2022-12-15T15:07:45.485Z,6.05
2022-12-15T15:10:30.927Z,6.82
2022-12-15T15:13:20.623Z,6.45
2022-12-15T15:16:13.006Z,5.75
2022-12-15T15:19:02.450Z,5.88
2022-12-15T15:21:47.924Z,5.55
2022-12-15T15:24:37.291Z,5.80
2022-12-15T15:27:26.864Z,6.55
2022-12-15T15:30:23.827Z,6.25
2022-12-15T15:33:09.995Z,5.70
2022-12-15T15:35:57.629Z,6.45
2022-12-15T15:38:46.575Z,5.38
2022-12-15T15:41:33.003Z,5.07
2022-12-15T15:44:18.128Z,5.47
2022-12-15T15:47:04.348Z,6.25
2022-12-15T15:49:50.923Z,4.63
2022-12-15T15:52:35.966Z,5.75
2022-12-15T15:55:29.508Z,6.25
2022-12-15T15:58:17.030Z,5.88
2022-12-15T16:01:03.829Z,6.13
2022-12-15T16:03:51.780Z,6.70
2022-12-15T16:06:39.770Z,5.50
2022-12-15T16:09:28.544Z,5.53
2022-12-15T16:12:29.578Z,5.07
2022-12-15T16:15:17.944Z,5.78
2022-12-15T16:18:03.477Z,6.18
2022-12-15T16:20:51.717Z,6.00
2022-12-15T16:23:37.493Z,6.88
2022-12-15T16:26:29.134Z,6.20
2022-12-15T16:29:15.444Z,7.25
2022-12-15T16:32:00.354Z,6.57
2022-12-15T16:34:45.738Z,11.35
2022-12-15T16:37:34.802Z,11.35
2022-12-15T16:40:26.144Z,7.57
2022-12-15T16:43:17.386Z,7.32
2022-12-15T16:46:02.408Z,6.95
2022-12-15T16:48:47.718Z,6.80
2022-12-15T16:51:39.110Z,6.57
2022-12-15T16:54:27.347Z,6.43
2022-12-15T16:57:12.317Z,8.77
2022-12-15T16:59:57.597Z,6.72
2022-12-15T17:02:42.919Z,6.53
2022-12-15T17:05:32.376Z,6.45
2022-12-15T17:08:21.196Z,6.40
2022-12-15T17:11:07.179Z,6.78
2022-12-15T17:13:56.038Z,6.55
2022-12-15T17:16:41.446Z,6.35
2022-12-15T17:19:26.735Z,6.90
2022-12-15T17:22:15.569Z,6.47
2022-12-15T17:25:00.581Z,6.03
2022-12-15T17:27:46.361Z,7.00
2022-12-15T17:30:31.651Z,6.70
2022-12-15T17:33:19.305Z,7.32
2022-12-15T17:36:15.394Z,7.00
2022-12-15T17:39:01.445Z,7.57
2022-12-15T17:42:02.638Z,7.05
2022-12-15T17:44:49.129Z,7.20
2022-12-15T17:47:36.791Z,7.25
2022-12-15T17:50:21.671Z,8.00
2022-12-15T17:53:07.036Z,8.10
2022-12-15T17:55:54.115Z,9.23
2022-12-15T17:58:39.862Z,8.57
2022-12-15T18:01:25.207Z,8.88
2022-12-15T18:04:10.712Z,7.85
2022-12-15T18:07:01.604Z,7.50
2022-12-15T18:09:48.545Z,7.72
2022-12-15T18:12:35.329Z,8.15
2022-12-15T18:15:23.781Z,7.50
2022-12-15T18:18:08.769Z,7.20
2022-12-15T18:21:00.284Z,7.25
2022-12-15T18:23:47.526Z,7.47
2022-12-15T18:26:37.788Z,7.85
2022-12-15T18:29:22.876Z,7.22
2022-12-15T18:32:09.479Z,6.70
2022-12-15T18:34:55.035Z,6.93
2022-12-15T18:37:40.127Z,6.97
2022-12-15T18:40:28.259Z,6.53
2022-12-15T18:43:16.560Z,6.60
2022-12-15T18:46:01.695Z,6.97
2022-12-15T18:48:46.949Z,6.80
2022-12-15T18:51:32.239Z,7.47
2022-12-15T18:54:20.959Z,7.32
2022-12-15T18:57:28.910Z,6.78
2022-12-15T19:00:14.136Z,7.30
2022-12-15T19:03:00.397Z,8.65
2022-12-15T19:05:46.954Z,8.15
2022-12-15T19:08:36.039Z,7.78
2022-12-15T19:11:30.988Z,8.00
2022-12-15T19:14:36.428Z,7.20
2022-12-15T19:17:41.589Z,8.05
2022-12-15T19:20:45.770Z,7.32
2022-12-15T19:23:31.402Z,6.93
2022-12-15T19:26:16.811Z,8.90
2022-12-15T19:29:02.086Z,10.75
2022-12-15T19:31:47.921Z,11.27
2022-12-15T19:34:33.592Z,8.52
2022-12-15T19:37:27.976Z,7.03
2022-12-15T19:40:22.124Z,7.85
2022-12-15T19:43:07.189Z,7.63
2022-12-15T19:45:53.192Z,6.93
2022-12-15T19:48:38.305Z,7.30
2022-12-15T19:51:24.154Z,16.10
2022-12-15T19:54:17.095Z,8.65
2022-12-15T19:57:02.050Z,14.65
2022-12-15T19:59:47.209Z,20.50
2022-12-15T20:02:32.589Z,29.05
2022-12-15T20:05:19.484Z,7.88
2022-12-15T20:08:05.067Z,7.40
2022-12-15T20:10:50.866Z,7.18
2022-12-15T20:13:36.215Z,7.20
2022-12-15T20:16:22.054Z,9.05
2022-12-15T20:19:07.247Z,7.55
2022-12-15T20:21:52.367Z,8.65
2022-12-15T20:24:37.660Z,6.72
2022-12-15T20:27:22.587Z,7.72
2022-12-15T20:30:16.395Z,7.72
2022-12-15T20:33:03.899Z,7.40
2022-12-15T20:35:50.340Z,12.45
2022-12-15T20:38:36.073Z,9.73
2022-12-15T20:41:24.025Z,13.82
2022-12-15T20:44:12.911Z,12.85
2022-12-15T20:46:58.324Z,14.02
2022-12-15T20:49:43.760Z,17.00
2022-12-15T20:52:29.394Z,11.48
2022-12-15T20:55:14.709Z,15.20
2022-12-15T20:57:59.778Z,11.35
2022-12-15T21:00:46.442Z,12.10
2022-12-15T21:03:34.932Z,12.82
2022-12-15T21:06:20.942Z,10.10
2022-12-15T21:09:11.988Z,19.17
2022-12-15T21:11:58.379Z,9.70
2022-12-15T21:14:43.476Z,10.40
2022-12-15T21:17:28.776Z,23.45
2022-12-15T21:20:14.192Z,27.45
2022-12-15T21:22:59.578Z,28.60
2022-12-15T21:25:45.668Z,23.55
2022-12-15T21:28:30.818Z,20.75
2022-12-15T21:31:17.279Z,14.15
2022-12-15T21:34:02.346Z,18.80
2022-12-15T21:36:51.719Z,9.80
2022-12-15T21:39:37.552Z,8.20
2022-12-15T21:42:22.851Z,6.97
2022-12-15T21:45:19.753Z,7.38
2022-12-15T21:48:23.128Z,6.90
2022-12-15T21:51:13.408Z,7.70
2022-12-15T21:53:59.019Z,7.57
2022-12-15T21:56:45.534Z,7.28
2022-12-15T21:59:32.608Z,7.32
2022-12-15T22:02:26.809Z,7.43
2022-12-15T22:05:23.557Z,7.38
2022-12-15T22:08:20.353Z,7.40
2022-12-15T22:11:12.116Z,6.30
2022-12-15T22:14:00.766Z,7.10
2022-12-15T22:16:45.560Z,6.65
2022-12-15T22:19:30.662Z,7.05
2022-12-15T22:22:16.571Z,6.70
2022-12-15T22:25:01.612Z,7.53
2022-12-15T22:27:47.896Z,7.72
2022-12-15T22:30:33.104Z,6.90
2022-12-15T22:33:23.873Z,6.90
2022-12-15T22:36:09.092Z,7.32
2022-12-15T22:38:54.142Z,7.05
2022-12-15T22:41:43.681Z,8.00
2022-12-15T22:44:34.604Z,7.85
2022-12-15T22:47:19.859Z,7.72
2022-12-15T22:50:07.045Z,7.38
2022-12-15T22:52:52.765Z,6.65
2022-12-15T22:55:41.241Z,7.78
2022-12-15T22:58:36.892Z,8.85
2022-12-15T23:01:22.148Z,7.70
2022-12-15T23:04:07.574Z,7.43
2022-12-15T23:06:52.992Z,7.40
2022-12-15T23:09:40.283Z,7.00
2022-12-15T23:12:25.211Z,6.60
2022-12-15T23:15:29.255Z,7.60
2022-12-15T23:18:14.717Z,8.50
2022-12-15T23:20:59.698Z,8.13
2022-12-15T23:23:45.048Z,8.35
2022-12-15T23:26:30.194Z,8.48
2022-12-15T23:29:15.503Z,7.75
2022-12-15T23:32:00.653Z,8.27
2022-12-15T23:34:45.868Z,7.97
2022-12-15T23:37:31.355Z,7.82
2022-12-15T23:40:21.347Z,6.80
2022-12-15T23:43:06.194Z,7.68
2022-12-15T23:46:00.184Z,6.70
2022-12-15T23:48:45.426Z,7.40
2022-12-15T23:51:30.496Z,8.65
2022-12-15T23:54:15.671Z,7.72
2022-12-15T23:57:01.078Z,8.00
2022-12-15T23:59:46.317Z,8.35
